Time;durP1;ratioP1;P1;durP2;ratioP2;P2;SDS_P1;SDS_P2;PMS_P1;PMS_P2;Temp;Humidity;BMP_temperature;BMP_pressure;BME280_temperature;BME280_humidity;BME280_pressure;Samples;Min_cycle;Max_cycle;Signal;HPM_P1;HPM_P2
2022/01/23 00:02:27;;;;;;;10.32;7.88;;;3.10;99.90;;;;;;5037485;28;20231;-86
2022/01/23 00:05:10;;;;;;;12.82;8.20;;;3.20;99.90;;;;;;5063544;28;20220;-85
2022/01/23 00:07:45;;;;;;;11.23;9.10;;;3.30;99.90;;;;;;5060887;28;20200;-84
2022/01/23 00:10:17;;;;;;;10.70;8.13;;;3.30;99.90;;;;;;5065941;28;20626;-85
2022/01/23 00:12:52;;;;;;;10.93;8.32;;;3.40;99.90;;;;;;5068798;28;20201;-85
2022/01/23 00:18:08;;;;;;;11.48;8.07;;;3.70;99.90;;;;;;5069756;28;20287;-83
2022/01/23 00:20:37;;;;;;;11.57;8.57;;;3.80;99.90;;;;;;5064913;28;20240;-86
2022/01/23 00:23:15;;;;;;;16.35;8.25;;;3.80;99.90;;;;;;5065857;28;20205;-85
2022/01/23 00:31:22;;;;;;;13.65;10.23;;;4.10;99.90;;;;;;5065203;28;20222;-86
2022/01/23 00:33:49;;;;;;;15.23;10.35;;;4.10;99.90;;;;;;5073054;28;20217;-85
2022/01/23 00:36:17;;;;;;;12.27;9.65;;;4.10;99.90;;;;;;5070225;28;20201;-86
2022/01/23 00:38:44;;;;;;;12.90;9.43;;;4.10;99.90;;;;;;5070624;28;20195;-86
2022/01/23 00:41:11;;;;;;;12.45;8.30;;;4.20;99.90;;;;;;5065926;28;20241;-86
2022/01/23 00:43:41;;;;;;;12.30;8.60;;;4.20;99.90;;;;;;5072684;28;20193;-86
2022/01/23 00:46:21;;;;;;;10.80;8.57;;;4.20;99.90;;;;;;5066109;28;20204;-86
2022/01/23 00:49:13;;;;;;;13.70;9.13;;;4.10;99.90;;;;;;5061222;28;20208;-86
2022/01/23 00:51:40;;;;;;;10.50;7.88;;;4.00;99.90;;;;;;5070001;28;20258;-86
2022/01/23 00:54:09;;;;;;;11.52;9.95;;;4.20;99.90;;;;;;5065533;28;20221;-84
2022/01/23 00:56:36;;;;;;;8.45;7.45;;;4.10;99.90;;;;;;5067265;28;20201;-86
2022/01/23 00:59:04;;;;;;;14.75;10.00;;;4.20;99.90;;;;;;5067170;28;20546;-85
2022/01/23 01:01:31;;;;;;;12.48;7.85;;;4.30;99.90;;;;;;5068213;28;20299;-85
2022/01/23 01:03:58;;;;;;;12.57;9.32;;;4.30;99.90;;;;;;5069504;28;20204;-85
2022/01/23 01:06:25;;;;;;;8.13;6.75;;;4.30;99.90;;;;;;5069028;28;20209;-85
2022/01/23 01:09:00;;;;;;;11.75;7.63;;;4.40;99.90;;;;;;5065875;28;20267;-85
2022/01/23 01:11:54;;;;;;;13.63;8.60;;;4.40;99.90;;;;;;5065982;28;20220;-86
2022/01/23 01:14:29;;;;;;;10.00;8.00;;;4.50;99.90;;;;;;5067838;28;20638;-85
2022/01/23 01:17:03;;;;;;;11.15;8.35;;;4.50;99.90;;;;;;5065168;28;20204;-85
2022/01/23 01:30:36;;;;;;;10.15;7.75;;;4.10;99.90;;;;;;5070268;28;20223;-85
2022/01/23 01:33:13;;;;;;;13.90;7.90;;;3.90;99.90;;;;;;5069398;28;20204;-85
2022/01/23 01:35:45;;;;;;;17.90;8.63;;;3.80;99.90;;;;;;5067610;28;20248;-85
2022/01/23 01:38:12;;;;;;;12.65;8.98;;;3.80;99.90;;;;;;5054669;28;20273;-85
2022/01/23 01:40:42;;;;;;;13.95;8.88;;;3.90;99.90;;;;;;5056692;28;20228;-85
2022/01/23 01:43:11;;;;;;;12.30;7.40;;;4.00;99.90;;;;;;5068119;28;20201;-85
2022/01/23 01:45:41;;;;;;;9.27;7.38;;;4.20;99.90;;;;;;5065860;28;20196;-86
2022/01/23 01:48:08;;;;;;;13.95;9.98;;;4.00;99.90;;;;;;5068522;28;20624;-85
2022/01/23 01:50:42;;;;;;;10.38;8.18;;;4.00;99.90;;;;;;5049796;28;20573;-85
2022/01/23 01:53:13;;;;;;;9.25;7.53;;;4.00;99.90;;;;;;5051492;28;20204;-84
2022/01/23 01:55:45;;;;;;;13.20;10.00;;;4.20;99.90;;;;;;5068307;28;20221;-87
2022/01/23 01:58:33;;;;;;;11.95;8.90;;;4.30;99.90;;;;;;5067410;28;20649;-85
2022/01/23 02:01:02;;;;;;;8.75;6.82;;;4.20;99.90;;;;;;5066204;28;20218;-86
2022/01/23 02:08:55;;;;;;;10.32;7.70;;;4.30;99.90;;;;;;5026154;28;20574;-84
2022/01/23 02:11:37;;;;;;;10.00;8.90;;;4.30;99.90;;;;;;5076804;28;20241;-82
2022/01/23 02:14:15;;;;;;;11.05;8.40;;;4.20;99.90;;;;;;5074298;28;20225;-84
2022/01/23 02:17:13;;;;;;;10.35;7.60;;;4.30;99.90;;;;;;5076362;28;20717;-85
2022/01/23 02:22:49;;;;;;;8.45;7.22;;;4.30;99.90;;;;;;5075827;28;20200;-83
2022/01/23 02:25:41;;;;;;;9.02;7.72;;;4.20;99.90;;;;;;5070917;28;20198;-84
2022/01/23 02:53:12;;;;;;;12.75;8.43;;;4.00;99.90;;;;;;5044477;28;20228;-84
2022/01/23 02:55:42;;;;;;;10.75;8.05;;;4.00;99.90;;;;;;5043952;28;20258;-86
2022/01/23 02:58:11;;;;;;;13.27;7.85;;;4.00;99.90;;;;;;5043467;28;20211;-84
2022/01/23 03:00:48;;;;;;;9.60;8.25;;;4.10;99.90;;;;;;5047024;28;20214;-86
2022/01/23 03:03:22;;;;;;;10.45;7.43;;;4.20;99.90;;;;;;5044247;28;20212;-86
2022/01/23 03:06:09;;;;;;;10.63;7.70;;;4.30;99.90;;;;;;5053923;28;20204;-84
2022/01/23 03:08:59;;;;;;;13.10;8.63;;;4.40;99.90;;;;;;5063173;28;20247;-87
2022/01/23 03:11:47;;;;;;;11.10;8.57;;;4.50;99.90;;;;;;5046088;28;20288;-87
2022/01/23 03:14:19;;;;;;;13.38;8.85;;;4.60;99.90;;;;;;5041856;28;20363;-87
2022/01/23 03:25:13;;;;;;;11.15;7.75;;;4.60;99.90;;;;;;5053009;28;20201;-86
2022/01/23 03:28:16;;;;;;;12.70;8.15;;;4.60;99.90;;;;;;5059698;28;20205;-86
2022/01/23 03:30:53;;;;;;;12.38;8.52;;;4.60;99.90;;;;;;5048835;28;20471;-87
2022/01/23 03:33:19;;;;;;;12.75;9.60;;;4.60;99.90;;;;;;5045677;28;20209;-84
2022/01/23 03:35:46;;;;;;;10.60;7.90;;;4.50;99.90;;;;;;5061245;28;20316;-86
2022/01/23 03:38:13;;;;;;;10.30;8.40;;;4.50;99.90;;;;;;5065186;28;20201;-87
2022/01/23 03:40:40;;;;;;;17.25;9.45;;;4.60;99.90;;;;;;5049228;28;20226;-85
2022/01/23 03:43:11;;;;;;;10.32;7.93;;;4.60;99.90;;;;;;5039684;28;20209;-86
2022/01/23 03:45:57;;;;;;;9.32;8.38;;;4.60;99.90;;;;;;5052829;28;20201;-84
2022/01/23 03:51:08;;;;;;;12.85;11.55;;;4.70;99.90;;;;;;5041040;28;20264;-85
2022/01/23 03:53:35;;;;;;;12.32;9.57;;;4.70;99.90;;;;;;5046060;28;20204;-86
2022/01/23 03:56:02;;;;;;;14.20;8.88;;;4.80;99.90;;;;;;5059970;28;20228;-85
2022/01/23 03:58:30;;;;;;;11.90;8.57;;;4.80;99.90;;;;;;5055831;28;20198;-84
2022/01/23 04:00:57;;;;;;;12.10;8.88;;;4.80;99.90;;;;;;5039010;28;20231;-86
2022/01/23 04:03:23;;;;;;;12.48;9.70;;;4.80;99.90;;;;;;5041998;28;20225;-86
2022/01/23 04:05:51;;;;;;;11.20;8.70;;;4.80;99.90;;;;;;5059587;28;20616;-84
2022/01/23 04:08:17;;;;;;;13.63;9.70;;;4.80;99.90;;;;;;5057266;28;20209;-87
2022/01/23 04:10:45;;;;;;;16.27;11.95;;;4.80;99.90;;;;;;5038711;28;20293;-85
2022/01/23 04:13:18;;;;;;;15.27;10.63;;;4.80;99.90;;;;;;5039570;28;20221;-86
2022/01/23 04:15:51;;;;;;;15.60;10.25;;;4.70;99.90;;;;;;5039499;28;20240;-84
2022/01/23 04:31:34;;;;;;;14.20;9.10;;;4.70;99.90;;;;;;5022809;28;20273;-86
2022/01/23 04:32:48;;;;;;;14.80;10.38;;;4.70;99.90;;;;;;4960078;28;20196;-85
2022/01/23 04:35:43;;;;;;;13.77;10.10;;;4.70;99.90;;;;;;5027555;28;20226;-87
2022/01/23 04:47:07;;;;;;;11.93;9.02;;;4.70;99.90;;;;;;4999221;28;20250;-84
2022/01/23 05:00:48;;;;;;;13.70;10.13;;;4.60;99.90;;;;;;5063980;28;20350;-86
2022/01/23 05:06:04;;;;;;;13.35;10.73;;;4.50;99.90;;;;;;5065801;28;20212;-85
2022/01/23 05:08:35;;;;;;;12.68;10.85;;;4.50;99.90;;;;;;5051727;28;20582;-86
2022/01/23 05:11:03;;;;;;;18.05;12.15;;;4.50;99.90;;;;;;5046470;28;20234;-84
2022/01/23 05:13:31;;;;;;;17.25;11.32;;;4.40;99.90;;;;;;5060468;28;20216;-84
2022/01/23 05:15:58;;;;;;;15.77;9.57;;;4.50;99.90;;;;;;5063651;28;20325;-87
2022/01/23 05:18:25;;;;;;;15.15;11.30;;;4.50;99.90;;;;;;5045982;28;20214;-85
2022/01/23 05:21:01;;;;;;;15.00;10.77;;;4.60;99.90;;;;;;5044867;28;20222;-86
2022/01/23 05:23:29;;;;;;;13.55;9.70;;;4.60;99.90;;;;;;5058686;28;20217;-85
2022/01/23 05:25:56;;;;;;;13.52;9.27;;;4.60;99.90;;;;;;5046658;28;20202;-84
2022/01/23 05:28:25;;;;;;;15.68;11.45;;;4.60;99.90;;;;;;5064648;28;20237;-85
2022/01/23 05:30:51;;;;;;;13.45;11.07;;;4.60;99.90;;;;;;5060369;28;20217;-87
2022/01/23 05:33:18;;;;;;;16.15;12.00;;;4.70;99.90;;;;;;5061871;28;20215;-84
2022/01/23 05:35:45;;;;;;;14.15;10.30;;;4.70;99.90;;;;;;5061043;28;20226;-85
2022/01/23 05:38:12;;;;;;;15.43;10.30;;;4.70;99.90;;;;;;5057174;28;20205;-85
2022/01/23 05:40:43;;;;;;;14.35;10.60;;;4.70;99.90;;;;;;5087811;28;20237;-84
2022/01/23 05:43:10;;;;;;;18.60;14.00;;;4.70;99.90;;;;;;5088192;28;20219;-87
2022/01/23 05:45:41;;;;;;;15.48;13.57;;;4.70;99.90;;;;;;5078090;28;20205;-86
2022/01/23 05:48:08;;;;;;;17.27;11.93;;;4.70;99.90;;;;;;5067466;28;20209;-84
2022/01/23 05:50:35;;;;;;;17.90;12.43;;;4.80;99.90;;;;;;5058977;28;20237;-84
2022/01/23 05:53:02;;;;;;;16.08;12.20;;;4.80;99.90;;;;;;5047118;28;20427;-87
2022/01/23 05:55:28;;;;;;;21.70;14.18;;;4.70;99.90;;;;;;5049655;28;20233;-87
2022/01/23 05:57:57;;;;;;;15.75;12.70;;;4.80;99.90;;;;;;5047909;28;20213;-83
2022/01/23 06:00:23;;;;;;;13.73;11.55;;;4.70;99.90;;;;;;5052874;28;20221;-87
2022/01/23 06:02:50;;;;;;;17.13;11.30;;;4.70;99.90;;;;;;5056264;28;20582;-86
2022/01/23 06:05:17;;;;;;;12.93;10.15;;;4.80;99.90;;;;;;5047233;28;20197;-86
2022/01/23 06:07:45;;;;;;;18.58;12.85;;;4.70;99.90;;;;;;5064275;28;20210;-86
2022/01/23 06:10:21;;;;;;;19.35;12.90;;;4.40;99.90;;;;;;5052829;28;20226;-85
2022/01/23 06:12:48;;;;;;;17.88;11.73;;;4.10;99.90;;;;;;5045003;28;20632;-84
2022/01/23 06:15:16;;;;;;;23.08;14.43;;;4.10;99.90;;;;;;5055484;28;20218;-86
2022/01/23 06:17:43;;;;;;;18.92;12.60;;;4.20;99.90;;;;;;5063841;28;20205;-86
2022/01/23 06:20:12;;;;;;;17.40;12.38;;;4.30;99.90;;;;;;5053730;28;20218;-86
2022/01/23 06:22:39;;;;;;;19.05;11.88;;;4.40;99.90;;;;;;5043122;28;20206;-87
2022/01/23 06:25:09;;;;;;;14.30;11.07;;;4.40;99.90;;;;;;5050047;28;20198;-87
2022/01/23 06:27:36;;;;;;;21.45;12.45;;;4.40;99.90;;;;;;5045714;28;20206;-84
2022/01/23 06:30:03;;;;;;;18.33;12.88;;;4.50;99.90;;;;;;5053004;28;20220;-86
2022/01/23 06:32:31;;;;;;;21.58;12.57;;;4.50;99.90;;;;;;5063009;28;20209;-85
2022/01/23 06:34:58;;;;;;;23.60;13.43;;;4.50;99.90;;;;;;5061483;28;20219;-85
2022/01/23 06:37:25;;;;;;;20.85;12.18;;;4.50;99.90;;;;;;5050107;28;20210;-86
2022/01/23 06:39:52;;;;;;;17.52;11.80;;;4.60;99.90;;;;;;5063644;28;20585;-87
2022/01/23 06:42:18;;;;;;;12.40;10.38;;;4.60;99.90;;;;;;5069411;28;20693;-84
2022/01/23 06:44:45;;;;;;;16.77;11.82;;;4.70;99.90;;;;;;5052525;28;20205;-85
2022/01/23 06:47:12;;;;;;;18.48;12.88;;;4.70;99.90;;;;;;5043097;28;20571;-85
2022/01/23 06:49:40;;;;;;;16.00;13.48;;;4.60;99.90;;;;;;5044624;28;20206;-84
2022/01/23 06:52:07;;;;;;;17.13;11.20;;;4.60;99.90;;;;;;5043203;28;20221;-86
2022/01/23 06:54:34;;;;;;;17.13;11.75;;;4.70;99.90;;;;;;5055465;28;20204;-87
2022/01/23 06:57:01;;;;;;;15.63;11.50;;;4.70;99.90;;;;;;5063597;28;20231;-85
2022/01/23 06:59:28;;;;;;;18.27;13.07;;;4.70;99.90;;;;;;5045106;28;20203;-86
2022/01/23 07:01:55;;;;;;;17.75;11.23;;;4.60;99.90;;;;;;5044105;28;20234;-84
2022/01/23 07:04:22;;;;;;;15.02;10.93;;;4.60;99.90;;;;;;5046586;28;20210;-86
2022/01/23 07:06:51;;;;;;;16.20;10.45;;;4.60;99.90;;;;;;5042597;28;20198;-87
2022/01/23 07:09:18;;;;;;;14.80;10.50;;;4.50;99.90;;;;;;5058879;28;20209;-86
2022/01/23 07:11:45;;;;;;;18.25;12.68;;;4.50;99.90;;;;;;5060877;28;20233;-85
2022/01/23 07:14:12;;;;;;;19.02;14.70;;;4.60;99.90;;;;;;5046054;28;20543;-86
2022/01/23 07:16:39;;;;;;;20.50;15.35;;;4.60;99.90;;;;;;5042805;28;20230;-85
2022/01/23 07:19:06;;;;;;;16.48;14.32;;;4.60;99.90;;;;;;5055120;28;20208;-84
2022/01/23 07:21:33;;;;;;;24.83;17.00;;;4.60;99.90;;;;;;5059838;28;20236;-86
2022/01/23 07:24:01;;;;;;;19.00;14.23;;;4.50;99.90;;;;;;5041712;28;20209;-84
2022/01/23 07:26:28;;;;;;;16.45;12.45;;;4.40;99.90;;;;;;5043066;28;20213;-86
2022/01/23 07:28:58;;;;;;;19.77;12.68;;;4.50;99.90;;;;;;5043226;28;20660;-86
2022/01/23 07:31:44;;;;;;;15.43;11.65;;;4.50;99.90;;;;;;5060980;28;20221;-87
2022/01/23 07:34:12;;;;;;;14.75;11.88;;;4.50;99.90;;;;;;5042475;28;20300;-86
2022/01/23 07:36:40;;;;;;;18.27;12.30;;;4.50;99.90;;;;;;5061763;28;20226;-87
2022/01/23 07:39:08;;;;;;;20.10;13.50;;;4.30;99.90;;;;;;5060409;28;20209;-86
2022/01/23 07:41:35;;;;;;;16.20;13.05;;;4.30;99.90;;;;;;5060972;28;20233;-87
2022/01/23 07:44:02;;;;;;;17.77;12.30;;;4.40;99.90;;;;;;5050014;28;20210;-83
2022/01/23 07:46:29;;;;;;;14.95;11.32;;;4.50;99.90;;;;;;5039227;28;20203;-85
2022/01/23 07:48:56;;;;;;;17.27;11.70;;;4.50;99.90;;;;;;5047556;28;20209;-86
2022/01/23 07:51:23;;;;;;;18.73;12.35;;;4.50;99.90;;;;;;5057809;28;20821;-84
2022/01/23 07:53:51;;;;;;;21.85;11.98;;;4.50;99.90;;;;;;5056999;28;20205;-84
2022/01/23 07:56:19;;;;;;;13.65;11.07;;;4.50;99.90;;;;;;5058060;28;20228;-84
2022/01/23 07:58:47;;;;;;;18.50;12.05;;;4.60;99.90;;;;;;5051255;28;20203;-84
2022/01/23 08:01:14;;;;;;;16.40;11.98;;;4.70;99.90;;;;;;5037401;28;20240;-84
2022/01/23 08:03:41;;;;;;;15.73;12.30;;;4.70;99.90;;;;;;5038434;28;20199;-84
2022/01/23 08:06:11;;;;;;;16.25;11.32;;;4.70;99.90;;;;;;5037320;28;20217;-84
2022/01/23 08:08:38;;;;;;;18.30;15.20;;;4.70;99.90;;;;;;5051179;28;20202;-84
2022/01/23 08:11:04;;;;;;;15.77;12.48;;;4.70;99.90;;;;;;5057731;28;20225;-84
2022/01/23 08:13:33;;;;;;;21.30;12.88;;;4.80;99.90;;;;;;5045834;28;20206;-85
2022/01/23 08:16:00;;;;;;;17.45;11.27;;;4.90;99.90;;;;;;5037290;28;20226;-84
2022/01/23 08:18:27;;;;;;;15.00;11.20;;;4.90;99.90;;;;;;5054318;28;20212;-84
2022/01/23 08:20:54;;;;;;;18.73;12.73;;;4.80;99.90;;;;;;5057315;28;20593;-84
2022/01/23 08:23:22;;;;;;;15.43;11.95;;;4.70;99.90;;;;;;5040548;28;20209;-84
2022/01/23 08:25:49;;;;;;;17.35;12.27;;;4.80;99.90;;;;;;5056042;28;20571;-84
2022/01/23 08:28:18;;;;;;;12.07;10.50;;;4.90;99.90;;;;;;5041383;28;20210;-84
2022/01/23 08:30:46;;;;;;;14.23;11.90;;;5.10;99.90;;;;;;5036807;28;20280;-85
2022/01/23 08:33:13;;;;;;;17.40;10.98;;;5.10;99.90;;;;;;5053484;28;20206;-85
2022/01/23 08:35:43;;;;;;;19.25;14.10;;;5.20;99.90;;;;;;5057663;28;20218;-84
2022/01/23 08:38:12;;;;;;;20.02;12.32;;;5.30;99.90;;;;;;5041281;28;20240;-85
2022/01/23 08:41:49;;;;;;;20.08;12.32;;;5.40;99.90;;;;;;5042807;28;20221;-85
2022/01/23 08:43:35;;;;;;;17.15;12.05;;;5.40;99.90;;;;;;5057908;28;20237;-84
2022/01/23 08:46:03;;;;;;;16.65;12.13;;;5.50;99.90;;;;;;5056661;28;20201;-84
2022/01/23 08:48:31;;;;;;;20.40;15.32;;;5.60;99.90;;;;;;5057818;28;20332;-84
2022/01/23 08:50:57;;;;;;;16.75;13.85;;;5.60;99.90;;;;;;5048973;28;20612;-85
2022/01/23 08:53:25;;;;;;;19.35;14.77;;;5.70;99.90;;;;;;5037501;28;20210;-84
2022/01/23 08:55:52;;;;;;;19.00;15.38;;;5.80;99.90;;;;;;5044181;28;20353;-85
2022/01/23 08:58:19;;;;;;;15.15;13.65;;;5.80;99.90;;;;;;5057520;28;20201;-84
2022/01/23 09:00:46;;;;;;;18.45;13.27;;;5.90;99.90;;;;;;5052961;28;20214;-85
2022/01/23 09:03:14;;;;;;;20.40;13.35;;;5.90;99.90;;;;;;5058315;28;20210;-84
2022/01/23 09:05:41;;;;;;;21.85;13.45;;;5.90;99.90;;;;;;5051893;28;20198;-84
2022/01/23 09:08:08;;;;;;;17.67;12.95;;;6.00;99.90;;;;;;5039316;28;20214;-84
2022/01/23 09:10:40;;;;;;;18.85;12.30;;;6.10;99.90;;;;;;5042562;28;20233;-85
2022/01/23 09:13:15;;;;;;;17.80;14.57;;;6.10;99.90;;;;;;5036207;28;20207;-85
2022/01/23 09:15:44;;;;;;;18.75;13.13;;;6.20;99.90;;;;;;5041704;28;20217;-85
2022/01/23 09:18:11;;;;;;;21.85;14.02;;;6.00;99.90;;;;;;5038543;28;20743;-84
2022/01/23 09:20:39;;;;;;;17.42;12.30;;;5.90;99.90;;;;;;5049565;28;20726;-84
2022/01/23 09:23:06;;;;;;;16.52;12.68;;;5.90;99.90;;;;;;5062280;28;20193;-85
2022/01/23 09:25:32;;;;;;;21.70;13.38;;;6.00;99.90;;;;;;5049288;28;20206;-84
2022/01/23 09:28:03;;;;;;;16.48;13.63;;;6.10;99.90;;;;;;5039108;28;20206;-85
2022/01/23 09:30:35;;;;;;;22.55;14.77;;;6.20;99.90;;;;;;5046388;28;20345;-84
2022/01/23 09:33:02;;;;;;;17.77;12.82;;;6.20;99.90;;;;;;5057926;28;20210;-84
2022/01/23 09:35:29;;;;;;;19.67;12.45;;;6.20;99.90;;;;;;5046676;28;20202;-85
2022/01/23 09:38:00;;;;;;;19.35;15.85;;;6.30;99.90;;;;;;5040298;28;20202;-84
2022/01/23 09:40:27;;;;;;;17.52;13.75;;;6.40;99.90;;;;;;5053227;28;20229;-84
2022/01/23 09:42:59;;;;;;;16.52;13.35;;;6.50;99.90;;;;;;5078585;28;20235;-84
2022/01/23 09:45:27;;;;;;;17.48;13.68;;;6.60;99.90;;;;;;5077635;28;20583;-85
2022/01/23 09:47:56;;;;;;;18.77;13.68;;;6.70;99.90;;;;;;5079867;28;20242;-85
2022/01/23 09:50:23;;;;;;;14.70;10.88;;;6.60;99.90;;;;;;5063695;28;20523;-84
2022/01/23 09:52:53;;;;;;;18.83;12.90;;;6.60;99.90;;;;;;5061434;28;20222;-84
2022/01/23 09:55:25;;;;;;;15.35;12.50;;;6.80;99.90;;;;;;5044881;28;20207;-84
2022/01/23 09:57:53;;;;;;;15.90;12.43;;;6.80;99.90;;;;;;5039937;28;20284;-84
2022/01/23 10:00:24;;;;;;;15.38;11.65;;;7.00;99.90;;;;;;5053658;28;20232;-84
2022/01/23 10:02:52;;;;;;;14.65;11.13;;;7.00;99.90;;;;;;5059564;28;20387;-84
2022/01/23 10:05:20;;;;;;;16.45;11.65;;;7.20;99.90;;;;;;5045080;28;20210;-84
2022/01/23 10:07:47;;;;;;;14.30;12.38;;;7.20;99.90;;;;;;5041626;28;20202;-82
2022/01/23 10:10:20;;;;;;;15.02;12.10;;;7.20;99.90;;;;;;5041966;28;20262;-82
2022/01/23 10:12:50;;;;;;;16.42;11.88;;;7.40;99.90;;;;;;5051189;28;20191;-81
2022/01/23 10:15:17;;;;;;;13.90;10.30;;;7.50;99.90;;;;;;5048016;28;20285;-80
2022/01/23 10:17:45;;;;;;;17.33;11.45;;;7.60;99.90;;;;;;5039396;28;20225;-80
2022/01/23 10:20:13;;;;;;;14.85;12.02;;;7.50;99.90;;;;;;5038991;28;20234;-80
2022/01/23 10:22:43;;;;;;;16.10;11.40;;;7.50;99.90;;;;;;5039755;28;20206;-80
2022/01/23 10:25:12;;;;;;;13.02;10.82;;;7.40;99.90;;;;;;5039045;28;20230;-80
2022/01/23 10:28:01;;;;;;;12.43;10.55;;;7.30;99.90;;;;;;5039290;28;20242;-83
2022/01/23 10:30:31;;;;;;;14.73;12.77;;;7.20;99.90;;;;;;5055014;28;20232;-81
2022/01/23 10:33:08;;;;;;;14.23;12.20;;;7.10;99.90;;;;;;5049529;28;20881;-81
2022/01/23 10:35:36;;;;;;;16.20;11.93;;;7.00;99.90;;;;;;5058587;28;20209;-81
2022/01/23 10:38:11;;;;;;;17.05;12.65;;;7.00;99.90;;;;;;5057233;28;20229;-81
2022/01/23 10:40:47;;;;;;;12.93;10.02;;;6.80;99.90;;;;;;5057110;28;20233;-80
2022/01/23 10:48:46;;;;;;;15.73;10.50;;;6.60;99.90;;;;;;5050253;28;20686;-81
2022/01/23 10:51:16;;;;;;;15.27;9.15;;;6.50;99.90;;;;;;5057815;28;20245;-81
2022/01/23 10:53:57;;;;;;;15.50;12.23;;;6.50;99.90;;;;;;5037923;28;20210;-81
2022/01/23 10:56:24;;;;;;;13.50;10.75;;;6.60;99.90;;;;;;5039296;28;20221;-81
2022/01/23 10:58:59;;;;;;;15.75;13.02;;;6.70;99.90;;;;;;5057420;28;20214;-80
2022/01/23 11:01:27;;;;;;;15.63;12.77;;;6.90;99.90;;;;;;5052371;28;20228;-80
2022/01/23 11:04:08;;;;;;;14.50;9.98;;;7.00;99.90;;;;;;5039980;28;20210;-80
2022/01/23 11:06:52;;;;;;;15.55;9.98;;;7.10;99.90;;;;;;5057844;28;20236;-82
2022/01/23 11:09:18;;;;;;;14.55;11.38;;;7.10;99.90;;;;;;5052383;28;20217;-81
2022/01/23 11:11:47;;;;;;;16.95;11.82;;;7.20;99.90;;;;;;5047140;28;20229;-81
2022/01/23 11:19:46;;;;;;;15.93;11.82;;;7.20;99.90;;;;;;5040614;28;20675;-81
2022/01/23 11:22:18;;;;;;;13.45;10.57;;;7.20;99.90;;;;;;5049250;28;20260;-81
2022/01/23 11:24:47;;;;;;;13.90;9.85;;;7.20;99.90;;;;;;5058758;28;20213;-81
2022/01/23 11:27:15;;;;;;;15.13;10.48;;;7.20;99.90;;;;;;5039083;28;20206;-81
2022/01/23 11:29:59;;;;;;;14.80;10.50;;;7.20;99.90;;;;;;5038157;28;20266;-83
2022/01/23 11:32:30;;;;;;;16.50;11.30;;;7.30;99.90;;;;;;5036918;28;20209;-80
2022/01/23 11:35:05;;;;;;;12.43;9.95;;;7.30;99.90;;;;;;5050986;28;20252;-80
2022/01/23 11:37:33;;;;;;;11.55;9.85;;;7.40;99.90;;;;;;5037924;28;20603;-80
2022/01/23 11:40:06;;;;;;;11.32;9.23;;;7.40;99.90;;;;;;5051204;28;20228;-80
2022/01/23 11:53:54;;;;;;;16.40;10.88;;;7.40;99.90;;;;;;4994090;28;20283;-80
2022/01/23 11:56:44;;;;;;;14.05;11.68;;;7.40;99.90;;;;;;5044332;28;20581;-80
2022/01/23 11:59:25;;;;;;;16.33;13.40;;;7.40;99.90;;;;;;5053575;28;20667;-80
2022/01/23 12:02:22;;;;;;;9.90;8.90;;;7.40;99.90;;;;;;5055631;28;20232;-80
2022/01/23 12:05:22;;;;;;;14.60;11.13;;;7.40;99.90;;;;;;5037572;28;20293;-80
2022/01/23 12:08:28;;;;;;;13.75;11.02;;;7.30;99.90;;;;;;5045405;28;20237;-80
2022/01/23 12:17:24;;;;;;;12.95;10.77;;;7.60;99.90;;;;;;5049475;28;20237;-80
2022/01/23 12:19:57;;;;;;;13.10;11.02;;;7.60;99.90;;;;;;5057046;28;20244;-81
2022/01/23 12:22:42;;;;;;;12.25;11.15;;;7.60;99.90;;;;;;5037284;28;20262;-81
2022/01/23 12:25:16;;;;;;;12.63;10.45;;;7.60;99.90;;;;;;5039800;28;20742;-81
2022/01/23 12:27:43;;;;;;;15.13;9.77;;;7.60;99.90;;;;;;5056503;28;20566;-80
2022/01/23 12:30:41;;;;;;;11.70;10.45;;;7.60;99.90;;;;;;5054234;28;20225;-81
2022/01/23 12:33:23;;;;;;;19.30;12.63;;;7.60;99.90;;;;;;5062127;28;20205;-81
2022/01/23 12:35:52;;;;;;;13.10;9.85;;;7.70;99.90;;;;;;5064009;28;20280;-81
2022/01/23 12:38:19;;;;;;;12.07;9.00;;;7.80;99.90;;;;;;5064793;28;20217;-81
2022/01/23 12:40:49;;;;;;;11.38;8.88;;;7.90;99.90;;;;;;5063447;28;20220;-81
2022/01/23 12:43:18;;;;;;;12.43;10.15;;;8.10;99.90;;;;;;5063942;28;20206;-81
2022/01/23 12:45:52;;;;;;;9.57;8.40;;;8.20;99.90;;;;;;5062817;28;20232;-81
2022/01/23 12:48:40;;;;;;;11.38;9.98;;;8.40;99.90;;;;;;5065053;28;20197;-81
2022/01/23 12:51:08;;;;;;;11.38;9.52;;;8.70;99.90;;;;;;5061700;28;20256;-81
2022/01/23 12:53:59;;;;;;;10.10;8.57;;;8.90;99.90;;;;;;5052629;28;20200;-80
2022/01/23 12:56:30;;;;;;;12.43;8.63;;;9.00;99.90;;;;;;5054964;28;20210;-82
2022/01/23 12:59:05;;;;;;;10.40;8.50;;;9.00;99.90;;;;;;5057580;28;20203;-81
2022/01/23 13:01:32;;;;;;;10.00;8.37;;;8.90;99.90;;;;;;5058880;28;20687;-82
2022/01/23 13:04:03;;;;;;;10.30;8.70;;;8.90;99.90;;;;;;5063326;28;20472;-80
2022/01/23 13:06:30;;;;;;;8.98;7.90;;;8.80;99.90;;;;;;5060558;28;20297;-81
2022/01/23 13:09:14;;;;;;;11.70;8.98;;;8.60;99.90;;;;;;5062515;28;20202;-80
2022/01/23 13:12:02;;;;;;;9.30;7.68;;;8.60;99.90;;;;;;5034078;28;20223;-81
2022/01/23 13:14:48;;;;;;;10.00;8.35;;;8.60;99.90;;;;;;5045876;28;20198;-81
2022/01/23 13:17:37;;;;;;;10.50;8.50;;;8.60;99.90;;;;;;5050531;28;20214;-81
2022/01/23 13:31:11;;;;;;;6.95;6.25;;;8.40;99.90;;;;;;5072595;28;20268;-82
2022/01/23 13:33:40;;;;;;;7.07;6.47;;;8.30;99.90;;;;;;5070410;28;20631;-82
2022/01/23 13:36:11;;;;;;;9.77;6.75;;;8.30;99.90;;;;;;5068996;28;20247;-82
2022/01/23 13:38:39;;;;;;;5.47;4.30;;;8.30;99.90;;;;;;5068120;28;20266;-82
2022/01/23 13:41:23;;;;;;;6.35;5.75;;;8.30;99.90;;;;;;5039671;28;20593;-83
2022/01/23 13:52:41;;;;;;;6.38;5.72;;;8.20;99.30;;;;;;5041196;28;20544;-83
2022/01/23 14:00:42;;;;;;;4.00;3.70;;;8.10;99.50;;;;;;5051215;28;20214;-83
2022/01/23 14:03:12;;;;;;;3.63;3.33;;;8.20;99.60;;;;;;5038272;28;20217;-84
2022/01/23 14:05:38;;;;;;;4.75;4.25;;;8.20;99.20;;;;;;5039084;28;20294;-83
2022/01/23 14:08:07;;;;;;;5.95;4.15;;;8.40;98.80;;;;;;5038719;28;20212;-82
2022/01/23 14:10:39;;;;;;;3.95;3.65;;;8.40;98.40;;;;;;5038167;28;20222;-83
2022/01/23 14:13:08;;;;;;;4.90;4.40;;;8.40;97.40;;;;;;5056161;28;20267;-83
2022/01/23 14:15:42;;;;;;;6.70;4.38;;;8.30;97.70;;;;;;5047284;28;20478;-81
2022/01/23 14:18:13;;;;;;;4.45;4.05;;;8.20;97.60;;;;;;5043577;28;20234;-83
2022/01/23 14:20:54;;;;;;;4.43;3.78;;;8.00;98.10;;;;;;5041460;28;20226;-81
2022/01/23 14:23:22;;;;;;;4.45;4.00;;;7.90;98.10;;;;;;5043405;28;20213;-85
2022/01/23 14:25:51;;;;;;;6.38;3.67;;;7.90;98.30;;;;;;5042759;28;20349;-85
2022/01/23 14:28:20;;;;;;;3.72;3.42;;;7.80;98.10;;;;;;5043318;28;20199;-84
2022/01/23 14:30:49;;;;;;;5.53;4.75;;;7.70;97.30;;;;;;5043957;28;20712;-84
2022/01/23 14:33:21;;;;;;;6.30;4.50;;;7.60;98.00;;;;;;5043986;28;20588;-83
2022/01/23 14:35:48;;;;;;;4.30;3.90;;;7.60;98.50;;;;;;5044856;28;20898;-85
2022/01/23 14:38:17;;;;;;;4.70;4.30;;;7.60;98.20;;;;;;5044324;28;20337;-84
2022/01/23 14:41:01;;;;;;;5.90;5.38;;;7.70;98.10;;;;;;5042616;28;20230;-83
2022/01/23 14:43:36;;;;;;;4.50;3.90;;;7.60;97.90;;;;;;5042715;28;20212;-82
2022/01/23 14:46:06;;;;;;;4.32;3.92;;;7.50;97.80;;;;;;5044237;28;20213;-84
2022/01/23 14:48:43;;;;;;;4.43;3.92;;;7.40;98.40;;;;;;5045345;28;20206;-82
2022/01/23 14:51:12;;;;;;;5.85;4.45;;;7.40;98.80;;;;;;5044523;28;20260;-85
2022/01/23 14:53:42;;;;;;;4.60;4.20;;;7.40;98.80;;;;;;5044265;28;20212;-81
2022/01/23 14:56:15;;;;;;;5.03;4.35;;;7.40;98.90;;;;;;5041988;28;20281;-83
2022/01/23 14:58:43;;;;;;;5.32;4.32;;;7.10;98.60;;;;;;5041624;28;20222;-83
2022/01/23 15:01:13;;;;;;;5.63;4.80;;;7.20;99.00;;;;;;5040363;28;20230;-84
2022/01/23 15:03:47;;;;;;;6.13;5.30;;;7.20;99.10;;;;;;5042317;28;20210;-85
2022/01/23 15:06:16;;;;;;;6.28;5.25;;;7.20;99.30;;;;;;5039499;28;20211;-84
2022/01/23 15:08:46;;;;;;;4.22;3.90;;;7.20;98.90;;;;;;5041626;28;20272;-83
2022/01/23 15:11:15;;;;;;;4.60;3.45;;;7.20;98.60;;;;;;5044762;28;20313;-84
2022/01/23 15:13:45;;;;;;;7.32;3.85;;;7.10;98.70;;;;;;5045718;28;20209;-83
2022/01/23 15:16:13;;;;;;;4.10;3.70;;;7.10;99.20;;;;;;5046514;28;20206;-83
2022/01/23 15:18:40;;;;;;;7.90;5.57;;;7.10;99.20;;;;;;5045215;28;20226;-84
2022/01/23 15:21:07;;;;;;;4.03;3.45;;;7.10;99.00;;;;;;5046876;28;20313;-85
2022/01/23 15:23:34;;;;;;;4.60;3.80;;;7.00;99.00;;;;;;5045238;28;20659;-84
2022/01/23 15:26:06;;;;;;;4.95;4.35;;;7.00;99.10;;;;;;5048705;28;20218;-80
2022/01/23 15:28:36;;;;;;;4.50;3.92;;;6.80;98.90;;;;;;5052438;28;20706;-83
2022/01/23 15:31:03;;;;;;;5.53;5.03;;;6.90;99.30;;;;;;5084795;28;20230;-82
2022/01/23 15:33:30;;;;;;;4.47;4.07;;;6.80;99.10;;;;;;5070032;28;20209;-82
2022/01/23 15:35:56;;;;;;;5.60;4.80;;;6.80;99.00;;;;;;5054716;28;20203;-83
2022/01/23 15:38:26;;;;;;;6.70;5.10;;;6.80;99.30;;;;;;5047595;28;20222;-82